Apostle Islands National Lak, Wisconsin
Current Conditions -  °F | °C
As of 5:53 PM on Thursday 27 Nov 2014 (Local Time) from KASX Reporting Station
Clear Clear  
Wind Chill: -23°   Ceiling: Unl
Heat Index: -18°   Visibility: 10mi
Dew Point: -20°   Wind: 5mph
Humidity: 83%   Direction: 230°SW
Pressure: 30.39"   Gusts: NA
Location:  46.8614°N, 90.9101°W
Report Text: KASX 272353Z AUTO 23004KT 10SM CLR M18/M20 A3039 RMK AO2 SLP318 T11781200 11117 21189 56006
Loading
Personal Weather Stations






























Interactive Weather Map New forecast layout! Learn more

10-Day Weather Forecast

Advertisements
Track Severe Weather on mobile